createdAt,value
2022-09-10T00:05:41.956Z,1013.94
2022-09-10T00:19:41.989Z,1013.85
2022-09-10T00:33:41.953Z,1013.76
2022-09-10T00:47:41.956Z,1013.66
2022-09-10T01:01:42.025Z,1013.43
2022-09-10T01:15:41.993Z,1013.39
2022-09-10T01:29:42.005Z,1013.44
2022-09-10T01:43:42.010Z,1013.46
2022-09-10T01:57:42.048Z,1013.55
2022-09-10T02:11:42.010Z,1013.49
2022-09-10T02:25:42.029Z,1013.48
2022-09-10T02:39:42.102Z,1013.53
2022-09-10T02:53:42.027Z,1013.8
2022-09-10T03:07:41.993Z,1013.97
2022-09-10T03:21:42.271Z,1013.97
2022-09-10T03:35:42.238Z,1013.96
2022-09-10T03:49:42.284Z,1014.04
2022-09-10T04:03:42.265Z,1013.88
2022-09-10T04:17:42.260Z,1013.98
2022-09-10T04:31:42.366Z,1013.95
2022-09-10T04:46:42.299Z,1013.96
2022-09-10T05:01:42.304Z,1014.15
2022-09-10T05:16:42.395Z,1014.18
2022-09-10T05:31:42.346Z,1014.22
2022-09-10T05:46:42.357Z,1014.09
2022-09-10T06:01:42.386Z,1014.15
2022-09-10T06:16:42.377Z,1014.12
2022-09-10T06:31:42.427Z,1014.14
2022-09-10T06:47:10.888Z,1014.11
2022-09-10T07:01:42.509Z,1014.23
2022-09-10T07:16:42.378Z,1014.43
2022-09-10T07:31:42.390Z,1014.47
2022-09-10T07:46:42.413Z,1014.64
2022-09-10T08:01:42.473Z,1014.73
2022-09-10T08:16:44.377Z,1014.85
2022-09-10T08:31:42.539Z,1014.95
2022-09-10T08:46:42.546Z,1015.01
2022-09-10T09:01:42.674Z,1015.08
2022-09-10T09:16:42.551Z,1015.12
2022-09-10T09:31:42.579Z,1015.21
2022-09-10T09:46:42.581Z,1015.05
2022-09-10T10:01:42.654Z,1014.99
2022-09-10T10:16:42.562Z,1014.86
2022-09-10T10:31:42.587Z,1014.76
2022-09-10T10:46:42.617Z,1014.64
2022-09-10T11:01:42.671Z,1014.49
2022-09-10T11:16:43.165Z,1014.29
2022-09-10T11:31:43.221Z,1014.2
2022-09-10T11:46:43.241Z,1014.1
2022-09-10T12:01:43.290Z,1014.01
2022-09-10T12:16:43.281Z,1013.81
2022-09-10T12:31:43.243Z,1013.75
2022-09-10T12:46:44.891Z,1013.53
2022-09-10T13:01:43.346Z,1013.35
2022-09-10T13:16:43.264Z,1013.17
2022-09-10T13:31:43.457Z,1013.02
2022-09-10T13:47:43.398Z,1012.98
2022-09-10T14:02:43.481Z,1013
2022-09-10T14:17:43.430Z,1012.99
2022-09-10T14:33:43.456Z,1012.67
2022-09-10T14:49:43.548Z,1012.61
2022-09-10T15:04:43.604Z,1012.64
2022-09-10T15:20:43.641Z,1012.65
2022-09-10T15:35:43.643Z,1012.66
2022-09-10T15:50:43.623Z,1012.94
2022-09-10T16:05:43.636Z,1013.14
2022-09-10T16:20:43.662Z,1013.2
2022-09-10T16:35:43.654Z,1013.16
2022-09-10T16:50:43.690Z,1013.2
2022-09-10T17:05:43.667Z,1013.02
2022-09-10T17:20:43.723Z,1013.06
2022-09-10T17:35:43.734Z,1013.24
2022-09-10T17:50:43.759Z,1013.3
2022-09-10T18:05:43.740Z,1013.54
2022-09-10T18:20:43.755Z,1013.63
2022-09-10T18:34:43.841Z,1013.59
2022-09-10T18:48:43.814Z,1013.84
2022-09-10T19:03:43.809Z,1013.97
2022-09-10T19:17:43.775Z,1014.15
2022-09-10T19:31:43.795Z,1014.08
2022-09-10T19:45:43.807Z,1014.24
2022-09-10T19:59:43.827Z,1014.45
2022-09-10T20:13:43.830Z,1014.56
2022-09-10T20:27:43.802Z,1014.64
2022-09-10T20:41:43.815Z,1014.76
2022-09-10T20:55:43.814Z,1014.84
2022-09-10T21:09:43.859Z,1014.86
2022-09-10T21:23:43.835Z,1014.96
2022-09-10T21:37:43.853Z,1014.99
2022-09-10T21:51:43.829Z,1014.91
2022-09-10T22:05:43.844Z,1014.76
2022-09-10T22:19:43.869Z,1014.79
2022-09-10T22:33:43.850Z,1014.98
2022-09-10T22:47:43.894Z,1015.27
2022-09-10T23:01:43.901Z,1015.69
2022-09-10T23:15:43.894Z,1016.22
2022-09-10T23:29:43.856Z,1015.9
2022-09-10T23:43:43.869Z,1016.19
2022-09-10T23:57:43.875Z,1016.12
